Airfield :
LOGIN :

Register | Disclaimer

   EN    FR    IT 

 










Legend :    VFR   Marginal VFR   IFR   Intensive IFR   Very Intensive IFR
Visi :
Ceiling :
>= 8 km
>= 3000ft
5 to 8 km
1000 to 3000 ft
1500m to 5 km
500 to 1000 ft
800 to 1500m
200 to 500 ft
< 800m
< 200 ft
Symbols :   Thunderstorms  Fog  Heavy snow  Heavy precipitations  Wind > 20 kt
SIGMETs :     Misc.  Thunderstorms  Icing  Turbulence  Mountain Waves  Volcanic Ashes






- Airport Elevation : 357 ft
- IATA code : TUF


LFOT - Tours

CURRENT METAR :
  • 132300Z AUTO 07008KT CAVOK 14/13 Q1011 NOSIG

EXPIRED METARs :
  • 132230Z AUTO 08004KT CAVOK 14/13 Q1012 NOSIG
  • 132200Z AUTO 04004KT 9999 SCT030 SCT035 BKN088 16/14 Q1012 NOSIG
  • 132130Z AUTO 09002KT 9999 OVC030 15/13 Q1012 NOSIG
  • 132100Z AUTO 11003KT 9999 BKN032 15/13 Q1012 NOSIG
  • 132030Z AUTO 00000KT 9999 BKN033 16/13 Q1013 NOSIG

TAF TAF LFOT
Valid from the 13 at 18:00 until the 14 at 18:00 UTC


131700Z 1318/1418 VRB03KT CAVOK
PROB40
TEMPO 1323/1403 BKN030
PROB30
TEMPO 1403/1405 1500 BR BKN002
BECMG 1405/1408 16010KT
PROB30
TEMPO 1408/1411 -SHRA SCT090TCU
TEMPO 1414/1417 18017G35KT 4000 -SHRA BKN050TCU
PROB40
TEMPO 1414/1417 23020G40KT 2000 TSRA BKN020 BKN040CB
TEMPO 1417/1418 2500 -RA BKN012 BKN070TCU



MET'MAP, your aeronautical weather chart ! - Copyright ORBIFLY December 2007 - Disclaimer

ORBIFLY MET'MAP TEAM :

Programming & Development : Alexandra Zaïnal
Concept & Development : Baudouin d'Aumeries
Co-Development & Prog : Marc-Olivier Méhu
Technical & hardware support : Manuel Goepfert

Contact : metmap@orbifly.com




SOURCES & CREDITS :

   NOAA